createdAt,value
2023-05-17T00:00:10.331Z,7.47
2023-05-17T00:02:37.753Z,8.50
2023-05-17T00:05:05.116Z,6.97
2023-05-17T00:07:31.704Z,7.97
2023-05-17T00:09:58.107Z,8.48
2023-05-17T00:12:24.540Z,6.05
2023-05-17T00:14:51.142Z,8.10
2023-05-17T00:17:17.616Z,7.50
2023-05-17T00:19:44.242Z,10.43
2023-05-17T00:22:10.742Z,9.73
2023-05-17T00:24:37.226Z,7.93
2023-05-17T00:27:03.878Z,8.73
2023-05-17T00:29:30.390Z,7.20
2023-05-17T00:31:56.836Z,8.23
2023-05-17T00:34:23.750Z,8.45
2023-05-17T00:36:50.380Z,10.48
2023-05-17T00:39:18.283Z,8.52
2023-05-17T00:41:44.816Z,10.15
2023-05-17T00:44:11.843Z,10.20
2023-05-17T00:46:38.324Z,9.38
2023-05-17T00:49:04.965Z,7.57
2023-05-17T00:51:31.723Z,8.73
2023-05-17T00:53:59.463Z,8.27
2023-05-17T00:56:25.933Z,11.80
2023-05-17T00:58:54.121Z,9.82
2023-05-17T01:01:21.282Z,6.30
2023-05-17T01:03:48.457Z,8.23
2023-05-17T01:06:15.216Z,10.38
2023-05-17T01:08:42.826Z,8.40
2023-05-17T01:11:31.109Z,11.02
2023-05-17T01:14:35.301Z,7.20
2023-05-17T01:17:06.143Z,8.80
2023-05-17T01:19:45.415Z,9.40
2023-05-17T01:22:34.108Z,10.38
2023-05-17T01:25:37.623Z,10.43
2023-05-17T01:28:06.154Z,12.55
2023-05-17T01:30:34.335Z,9.15
2023-05-17T01:33:02.573Z,13.18
2023-05-17T01:35:29.739Z,9.77
2023-05-17T01:37:56.429Z,8.60
2023-05-17T01:40:24.396Z,9.55
2023-05-17T01:43:10.630Z,9.15
2023-05-17T01:46:05.569Z,12.93
2023-05-17T01:48:36.931Z,9.43
2023-05-17T01:51:04.263Z,11.35
2023-05-17T01:53:42.658Z,11.52
2023-05-17T01:56:14.861Z,12.95
2023-05-17T01:58:46.510Z,12.02
2023-05-17T02:01:15.803Z,13.25
2023-05-17T02:03:42.793Z,15.35
2023-05-17T02:06:09.354Z,17.73
2023-05-17T02:08:35.858Z,13.80
2023-05-17T02:11:02.392Z,17.08
2023-05-17T02:13:30.671Z,14.02
2023-05-17T02:16:00.919Z,11.57
2023-05-17T02:18:28.031Z,10.13
2023-05-17T02:20:55.034Z,13.60
2023-05-17T02:23:21.543Z,12.93
2023-05-17T02:25:48.010Z,12.05
2023-05-17T02:28:14.453Z,12.27
2023-05-17T02:30:40.896Z,9.90
2023-05-17T02:33:08.235Z,11.65
2023-05-17T02:35:34.814Z,14.13
2023-05-17T02:38:01.496Z,11.13
2023-05-17T02:40:27.932Z,14.77
2023-05-17T02:42:54.488Z,14.30
2023-05-17T02:45:20.933Z,12.23
2023-05-17T02:47:47.559Z,13.27
2023-05-17T02:50:14.413Z,14.85
2023-05-17T02:52:41.484Z,10.75
2023-05-17T02:55:08.339Z,11.50
2023-05-17T02:57:34.822Z,13.15
2023-05-17T03:00:02.052Z,14.23
2023-05-17T03:02:29.096Z,15.65
2023-05-17T03:04:55.760Z,14.10
2023-05-17T03:07:22.533Z,15.50
2023-05-17T03:09:49.302Z,14.40
2023-05-17T03:12:15.963Z,10.25
2023-05-17T03:14:42.657Z,18.58
2023-05-17T03:17:09.621Z,12.35
2023-05-17T03:19:36.168Z,15.38
2023-05-17T03:22:03.769Z,12.93
2023-05-17T03:24:32.858Z,18.40
2023-05-17T03:27:00.229Z,13.40
2023-05-17T03:29:26.856Z,16.20
2023-05-17T03:31:53.436Z,21.40
2023-05-17T03:34:19.984Z,15.70
2023-05-17T03:36:46.875Z,18.88
2023-05-17T03:39:13.618Z,17.27
2023-05-17T03:41:42.200Z,15.70
2023-05-17T03:44:09.983Z,19.98
2023-05-17T03:46:37.226Z,18.27
2023-05-17T03:49:04.706Z,16.23
2023-05-17T03:51:33.024Z,21.45
2023-05-17T03:54:01.236Z,19.27
2023-05-17T03:56:29.381Z,20.15
2023-05-17T03:58:55.818Z,17.73
2023-05-17T04:01:22.868Z,22.15
2023-05-17T04:03:49.540Z,21.58
2023-05-17T04:06:16.562Z,20.92
2023-05-17T04:08:43.911Z,17.92
2023-05-17T04:11:12.795Z,27.55
2023-05-17T04:13:40.744Z,18.85
2023-05-17T04:16:08.779Z,20.83
2023-05-17T04:18:38.008Z,21.65
2023-05-17T04:21:05.407Z,20.98
2023-05-17T04:23:34.161Z,19.83
2023-05-17T04:26:02.035Z,18.67
2023-05-17T04:28:31.120Z,15.43
2023-05-17T04:30:58.025Z,20.15
2023-05-17T04:33:24.704Z,20.33
2023-05-17T04:35:54.801Z,15.93
2023-05-17T04:38:24.088Z,18.67
2023-05-17T04:40:51.154Z,16.20
2023-05-17T04:43:17.964Z,20.38
2023-05-17T04:45:45.034Z,18.05
2023-05-17T04:48:11.902Z,21.98
2023-05-17T04:50:38.566Z,18.45
2023-05-17T04:53:05.100Z,20.30
2023-05-17T04:55:34.631Z,22.80
2023-05-17T04:58:01.159Z,19.25
2023-05-17T05:00:28.098Z,16.98
2023-05-17T05:03:01.410Z,16.08
2023-05-17T05:05:28.373Z,23.55
2023-05-17T05:07:55.171Z,20.38
2023-05-17T05:10:21.793Z,18.10
2023-05-17T05:12:48.636Z,19.98
2023-05-17T05:15:15.647Z,22.75
2023-05-17T05:17:48.606Z,19.30
2023-05-17T05:20:15.667Z,17.85
2023-05-17T05:22:43.041Z,21.60
2023-05-17T05:25:10.417Z,17.77
2023-05-17T05:27:37.032Z,22.88
2023-05-17T05:30:04.127Z,19.23
2023-05-17T05:32:32.221Z,26.30
2023-05-17T05:34:58.864Z,24.30
2023-05-17T05:37:25.912Z,26.30
2023-05-17T05:39:53.298Z,21.92
2023-05-17T05:42:20.076Z,18.38
2023-05-17T05:44:46.591Z,21.23
2023-05-17T05:47:13.579Z,23.02
2023-05-17T05:49:40.036Z,21.90
2023-05-17T05:52:06.579Z,19.95
2023-05-17T05:54:36.218Z,15.15
2023-05-17T05:57:02.770Z,17.95
2023-05-17T05:59:30.495Z,17.20
2023-05-17T06:01:58.858Z,18.58
2023-05-17T06:04:33.065Z,15.30
2023-05-17T06:07:10.846Z,17.48
2023-05-17T06:09:38.429Z,14.73
2023-05-17T06:12:05.300Z,18.38
2023-05-17T06:14:31.748Z,16.05
2023-05-17T06:16:58.207Z,16.83
2023-05-17T06:19:25.122Z,22.98
2023-05-17T06:21:51.720Z,12.25
2023-05-17T06:24:18.203Z,11.00
2023-05-17T06:26:44.738Z,12.25
2023-05-17T06:29:11.183Z,15.30
2023-05-17T06:31:37.648Z,13.60
2023-05-17T06:34:04.269Z,13.50
2023-05-17T06:36:32.395Z,12.43
2023-05-17T06:38:59.620Z,15.82
2023-05-17T06:41:26.248Z,14.30
2023-05-17T06:43:52.673Z,11.32
2023-05-17T06:46:19.116Z,11.50
2023-05-17T06:48:47.390Z,13.75
2023-05-17T06:51:15.874Z,17.40
2023-05-17T06:53:42.365Z,11.77
2023-05-17T06:56:08.834Z,10.82
2023-05-17T06:58:35.612Z,11.25
2023-05-17T07:01:02.103Z,7.90
2023-05-17T07:03:28.669Z,10.05
2023-05-17T07:05:55.210Z,10.32
2023-05-17T07:08:21.749Z,11.77
2023-05-17T07:10:51.725Z,19.73
2023-05-17T07:13:18.870Z,10.48
2023-05-17T07:15:46.175Z,15.65
2023-05-17T07:18:12.738Z,12.38
2023-05-17T07:20:39.283Z,18.52
2023-05-17T07:23:05.972Z,19.38
2023-05-17T07:25:32.937Z,13.93
2023-05-17T07:27:59.662Z,12.10
2023-05-17T07:30:26.285Z,13.50
2023-05-17T07:32:52.800Z,12.10
2023-05-17T07:35:21.678Z,14.18
2023-05-17T07:37:48.543Z,14.07
2023-05-17T07:40:15.413Z,9.50
2023-05-17T07:42:41.832Z,10.90
2023-05-17T07:45:08.962Z,15.07
2023-05-17T07:47:35.575Z,10.90
2023-05-17T07:50:03.770Z,14.45
2023-05-17T07:52:30.253Z,11.40
2023-05-17T07:54:56.663Z,11.05
2023-05-17T07:57:23.225Z,9.18
2023-05-17T07:59:49.657Z,10.77
2023-05-17T08:02:16.873Z,13.15
2023-05-17T08:04:43.420Z,9.18
2023-05-17T08:07:09.874Z,13.57
2023-05-17T08:09:36.365Z,12.48
2023-05-17T08:12:03.788Z,15.07
2023-05-17T08:14:30.271Z,14.98
2023-05-17T08:16:56.703Z,9.00
2023-05-17T08:19:23.252Z,11.65
2023-05-17T08:21:49.846Z,11.35
2023-05-17T08:24:17.540Z,11.20
2023-05-17T08:26:44.030Z,10.15
2023-05-17T08:29:10.934Z,9.98
2023-05-17T08:31:37.486Z,8.65
2023-05-17T08:34:04.158Z,8.25
2023-05-17T08:36:30.766Z,10.30
2023-05-17T08:38:57.246Z,12.65
2023-05-17T08:41:24.464Z,11.45
2023-05-17T08:43:51.606Z,12.27
2023-05-17T08:46:21.729Z,7.25
2023-05-17T08:48:51.856Z,8.65
2023-05-17T08:51:19.837Z,6.95
2023-05-17T08:53:47.189Z,8.98
2023-05-17T08:56:16.377Z,15.75
2023-05-17T08:58:55.485Z,7.85
2023-05-17T09:01:26.533Z,8.52
2023-05-17T09:03:54.682Z,10.70
2023-05-17T09:06:22.594Z,10.55
2023-05-17T09:08:54.440Z,6.47
2023-05-17T09:11:29.284Z,10.65
2023-05-17T09:14:00.377Z,11.85
2023-05-17T09:16:36.201Z,8.98
2023-05-17T09:19:07.450Z,9.60
2023-05-17T09:21:36.199Z,12.65
2023-05-17T09:24:07.051Z,10.35
2023-05-17T09:26:45.698Z,9.30
2023-05-17T09:29:14.913Z,10.18
2023-05-17T09:31:41.999Z,11.52
2023-05-17T09:34:09.112Z,6.72
2023-05-17T09:36:38.433Z,7.03
2023-05-17T09:39:07.879Z,9.02
2023-05-17T09:41:47.379Z,9.77
2023-05-17T09:44:15.436Z,6.43
2023-05-17T09:46:44.708Z,8.85
2023-05-17T09:49:12.348Z,6.22
2023-05-17T09:51:43.281Z,11.10
2023-05-17T09:54:10.974Z,9.80
2023-05-17T09:56:38.196Z,11.80
2023-05-17T09:59:14.439Z,10.20
2023-05-17T10:01:42.565Z,9.93
2023-05-17T10:04:10.699Z,9.20
2023-05-17T10:06:46.454Z,5.32
2023-05-17T10:09:17.116Z,11.90
2023-05-17T10:11:46.700Z,9.25
2023-05-17T10:14:33.721Z,8.45
2023-05-17T10:17:03.434Z,9.65
2023-05-17T10:19:30.723Z,7.07
2023-05-17T10:22:05.182Z,9.80
2023-05-17T10:24:46.459Z,9.95
2023-05-17T10:27:13.314Z,8.18
2023-05-17T10:29:41.179Z,6.47
2023-05-17T10:32:08.044Z,5.78
2023-05-17T10:34:39.496Z,8.88
2023-05-17T10:37:06.730Z,6.75
2023-05-17T10:39:34.786Z,7.80
2023-05-17T10:42:14.265Z,6.88
2023-05-17T10:44:42.561Z,7.47
2023-05-17T10:47:11.110Z,6.85
2023-05-17T10:49:39.578Z,6.18
2023-05-17T10:52:32.160Z,8.07
2023-05-17T10:54:59.562Z,10.00
2023-05-17T10:57:49.975Z,7.20
2023-05-17T11:00:27.647Z,6.93
2023-05-17T11:03:12.229Z,7.38
2023-05-17T11:05:43.679Z,11.30
2023-05-17T11:08:17.919Z,9.70
2023-05-17T11:11:14.017Z,9.82
2023-05-17T11:13:54.165Z,5.15
2023-05-17T11:16:22.427Z,10.52
2023-05-17T11:18:54.048Z,9.85
2023-05-17T11:21:22.628Z,7.43
2023-05-17T11:23:56.350Z,4.63
2023-05-17T11:26:34.140Z,5.95
2023-05-17T11:29:04.866Z,5.50
2023-05-17T11:31:36.806Z,5.30
2023-05-17T11:34:04.559Z,4.93
2023-05-17T11:36:32.271Z,5.47
2023-05-17T11:39:11.931Z,4.47
2023-05-17T11:41:41.505Z,4.75
2023-05-17T11:44:11.296Z,5.07
2023-05-17T11:46:39.192Z,5.63
2023-05-17T11:49:09.126Z,6.43
2023-05-17T11:51:36.402Z,5.28
2023-05-17T11:54:04.167Z,7.38
2023-05-17T11:56:43.556Z,5.80
2023-05-17T11:59:10.862Z,5.18
2023-05-17T12:01:47.545Z,7.00
2023-05-17T12:04:14.459Z,4.60
2023-05-17T12:06:41.411Z,6.93
2023-05-17T12:09:10.872Z,5.78
2023-05-17T12:11:39.433Z,9.30
2023-05-17T12:14:06.535Z,5.03
2023-05-17T12:16:36.285Z,5.75
2023-05-17T12:19:03.805Z,4.82
2023-05-17T12:21:30.440Z,3.72
2023-05-17T12:23:56.883Z,3.85
2023-05-17T12:26:23.631Z,5.82
2023-05-17T12:28:58.558Z,5.35
2023-05-17T12:31:38.271Z,5.05
2023-05-17T12:34:06.557Z,4.90
2023-05-17T12:36:34.005Z,5.78
2023-05-17T12:39:01.568Z,4.60
2023-05-17T12:41:30.002Z,7.53
2023-05-17T12:44:06.228Z,3.20
2023-05-17T12:46:40.895Z,6.38
2023-05-17T12:49:12.290Z,6.22
2023-05-17T12:51:41.125Z,4.60
2023-05-17T12:54:07.781Z,2.65
2023-05-17T12:56:34.292Z,5.07
2023-05-17T12:59:25.528Z,5.93
2023-05-17T13:01:55.663Z,4.35
2023-05-17T13:04:31.591Z,7.50
2023-05-17T13:07:01.335Z,4.78
2023-05-17T13:09:33.432Z,5.63
2023-05-17T13:12:02.094Z,4.70
2023-05-17T13:14:46.548Z,4.00
2023-05-17T13:17:21.028Z,4.85
2023-05-17T13:19:47.716Z,4.57
2023-05-17T13:22:15.616Z,5.50
2023-05-17T13:24:43.967Z,4.18
2023-05-17T13:27:11.805Z,6.45
2023-05-17T13:29:41.529Z,7.75
2023-05-17T13:32:09.939Z,5.20
2023-05-17T13:34:36.663Z,6.93
2023-05-17T13:37:04.163Z,4.95
2023-05-17T13:39:30.783Z,4.50
2023-05-17T13:41:58.057Z,5.57
2023-05-17T13:44:24.981Z,4.88
2023-05-17T13:46:51.555Z,4.78
2023-05-17T13:49:18.263Z,6.68
2023-05-17T13:51:45.853Z,4.57
2023-05-17T13:54:12.617Z,3.80
2023-05-17T13:56:39.224Z,6.30
2023-05-17T13:59:05.752Z,5.30
2023-05-17T14:01:32.260Z,6.50
2023-05-17T14:04:00.580Z,5.53
2023-05-17T14:06:27.524Z,4.05
2023-05-17T14:08:55.369Z,5.13
2023-05-17T14:11:21.926Z,7.00
2023-05-17T14:13:48.363Z,3.60
2023-05-17T14:16:14.949Z,4.22
2023-05-17T14:18:41.653Z,6.38
2023-05-17T14:21:08.407Z,3.72
2023-05-17T14:23:35.444Z,8.18
2023-05-17T14:26:04.976Z,4.65
2023-05-17T14:28:31.491Z,3.28
2023-05-17T14:30:57.951Z,7.13
2023-05-17T14:33:25.650Z,7.40
2023-05-17T14:35:52.264Z,7.07
2023-05-17T14:38:20.333Z,5.90
2023-05-17T14:40:46.909Z,5.70
2023-05-17T14:43:13.402Z,4.82
2023-05-17T14:45:39.886Z,4.60
2023-05-17T14:48:06.663Z,7.38
2023-05-17T14:50:34.577Z,6.72
2023-05-17T14:53:01.078Z,4.57
2023-05-17T14:55:27.692Z,4.93
2023-05-17T14:57:54.719Z,4.13
2023-05-17T15:00:22.269Z,5.43
2023-05-17T15:02:48.778Z,5.60
2023-05-17T15:05:15.308Z,7.72
2023-05-17T15:07:42.304Z,6.20
2023-05-17T15:10:10.287Z,6.63
2023-05-17T15:12:36.761Z,9.27
2023-05-17T15:15:03.417Z,8.70
2023-05-17T15:17:29.906Z,7.45
2023-05-17T15:19:56.682Z,8.18
2023-05-17T15:22:24.197Z,10.48
2023-05-17T15:24:51.514Z,6.38
2023-05-17T15:27:18.344Z,6.18
2023-05-17T15:29:44.853Z,5.03
2023-05-17T15:32:11.459Z,6.05
2023-05-17T15:34:38.030Z,6.90
2023-05-17T15:37:04.565Z,9.88
2023-05-17T15:39:31.299Z,8.35
2023-05-17T15:41:57.876Z,8.18
2023-05-17T15:44:24.429Z,6.88
2023-05-17T15:46:50.940Z,5.63
2023-05-17T15:49:17.400Z,5.70
2023-05-17T15:51:44.165Z,6.78
2023-05-17T15:54:10.663Z,6.90
2023-05-17T15:56:38.242Z,8.02
2023-05-17T15:59:05.619Z,6.00
2023-05-17T16:01:32.082Z,6.05
2023-05-17T16:03:58.642Z,5.72
2023-05-17T16:06:25.217Z,9.00
2023-05-17T16:08:51.683Z,9.98
2023-05-17T16:11:18.139Z,6.32
2023-05-17T16:13:44.571Z,9.38
2023-05-17T16:16:13.251Z,8.02
2023-05-17T16:18:39.999Z,4.65
2023-05-17T16:21:07.781Z,7.90
2023-05-17T16:23:34.401Z,9.43
2023-05-17T16:26:01.379Z,7.50
2023-05-17T16:28:28.174Z,8.02
2023-05-17T16:30:54.759Z,5.75
2023-05-17T16:33:21.483Z,7.53
2023-05-17T16:35:51.565Z,8.18
2023-05-17T16:38:18.117Z,6.47
2023-05-17T16:40:44.618Z,5.75
2023-05-17T16:43:15.708Z,8.63
2023-05-17T16:45:45.473Z,6.82
2023-05-17T16:48:14.164Z,7.15
2023-05-17T16:50:41.777Z,6.00
2023-05-17T16:53:08.632Z,7.57
2023-05-17T16:55:36.230Z,7.97
2023-05-17T16:58:02.778Z,8.75
2023-05-17T17:00:29.985Z,8.75
2023-05-17T17:02:58.146Z,10.77
2023-05-17T17:05:25.118Z,5.80
2023-05-17T17:07:51.625Z,8.80
2023-05-17T17:10:19.920Z,6.93
2023-05-17T17:12:48.105Z,9.00
2023-05-17T17:15:15.476Z,9.10
2023-05-17T17:17:42.508Z,8.25
2023-05-17T17:20:09.530Z,7.88
2023-05-17T17:22:36.104Z,7.53
2023-05-17T17:25:02.596Z,7.38
2023-05-17T17:27:29.118Z,9.57
2023-05-17T17:29:55.796Z,10.65
2023-05-17T17:32:22.353Z,11.82
2023-05-17T17:34:48.932Z,7.38
2023-05-17T17:37:16.075Z,7.68
2023-05-17T17:39:42.649Z,7.90
2023-05-17T17:42:10.185Z,8.73
2023-05-17T17:44:36.695Z,7.57
2023-05-17T17:47:03.272Z,10.80
2023-05-17T17:49:30.136Z,8.50
2023-05-17T17:51:58.107Z,7.30
2023-05-17T17:54:25.014Z,15.48
2023-05-17T17:56:52.026Z,8.38
2023-05-17T17:59:18.453Z,7.18
2023-05-17T18:01:45.026Z,7.55
2023-05-17T18:04:13.318Z,11.30
2023-05-17T18:06:41.713Z,9.18
2023-05-17T18:09:08.637Z,8.48
2023-05-17T18:11:35.182Z,7.43
2023-05-17T18:14:02.444Z,8.70
2023-05-17T18:16:29.055Z,8.70
2023-05-17T18:18:55.587Z,9.70
2023-05-17T18:21:22.127Z,11.15
2023-05-17T18:23:48.529Z,9.15
2023-05-17T18:26:14.956Z,8.13
2023-05-17T18:28:42.851Z,6.90
2023-05-17T18:31:09.568Z,6.93
2023-05-17T18:33:36.012Z,5.28
2023-05-17T18:36:02.600Z,11.70
2023-05-17T18:38:29.958Z,8.93
2023-05-17T18:40:56.853Z,9.93
2023-05-17T18:43:23.480Z,7.72
2023-05-17T18:45:51.190Z,8.13
2023-05-17T18:48:18.362Z,9.32
2023-05-17T18:50:44.880Z,7.85
2023-05-17T18:53:12.723Z,8.75
2023-05-17T18:55:39.149Z,10.25
2023-05-17T18:58:05.599Z,9.07
2023-05-17T19:00:32.210Z,5.93
2023-05-17T19:02:58.890Z,8.15
2023-05-17T19:05:25.630Z,8.55
2023-05-17T19:07:52.083Z,8.73
2023-05-17T19:10:19.787Z,6.90
2023-05-17T19:12:46.332Z,8.88
2023-05-17T19:15:13.071Z,9.35
2023-05-17T19:17:39.766Z,8.52
2023-05-17T19:20:07.133Z,7.85
2023-05-17T19:22:35.658Z,6.45
2023-05-17T19:25:02.412Z,9.75
2023-05-17T19:27:28.886Z,7.53
2023-05-17T19:29:55.791Z,7.53
2023-05-17T19:32:22.753Z,9.63
2023-05-17T19:34:49.777Z,7.55
2023-05-17T19:37:16.401Z,11.23
2023-05-17T19:39:42.831Z,10.05
2023-05-17T19:42:09.832Z,8.43
2023-05-17T19:44:36.276Z,7.13
2023-05-17T19:47:02.694Z,11.48
2023-05-17T19:49:29.215Z,6.47
2023-05-17T19:52:00.389Z,7.75
2023-05-17T19:54:30.322Z,9.15
2023-05-17T19:56:57.445Z,5.88
2023-05-17T19:59:23.945Z,9.38
2023-05-17T20:01:50.538Z,9.10
2023-05-17T20:04:17.153Z,6.88
2023-05-17T20:06:43.872Z,8.40
2023-05-17T20:09:10.454Z,8.80
2023-05-17T20:11:36.967Z,7.18
2023-05-17T20:14:03.412Z,9.02
2023-05-17T20:16:30.743Z,8.27
2023-05-17T20:19:00.779Z,11.63
2023-05-17T20:21:27.322Z,7.53
2023-05-17T20:24:00.539Z,8.45
2023-05-17T20:26:31.278Z,10.88
2023-05-17T20:28:58.891Z,6.07
2023-05-17T20:31:25.853Z,10.70
2023-05-17T20:33:52.909Z,10.15
2023-05-17T20:36:19.948Z,10.30
2023-05-17T20:38:46.727Z,6.80
2023-05-17T20:41:14.706Z,8.52
2023-05-17T20:43:45.214Z,8.73
2023-05-17T20:46:15.795Z,8.80
2023-05-17T20:48:43.131Z,6.93
2023-05-17T20:51:10.594Z,7.13
2023-05-17T20:53:37.708Z,9.13
2023-05-17T20:56:04.659Z,7.88
2023-05-17T20:58:31.395Z,9.00
2023-05-17T21:00:59.814Z,10.40
2023-05-17T21:03:33.892Z,8.32
2023-05-17T21:06:02.007Z,6.55
2023-05-17T21:08:28.598Z,9.82
2023-05-17T21:10:55.730Z,8.90
2023-05-17T21:13:23.787Z,8.45
2023-05-17T21:15:50.400Z,8.20
2023-05-17T21:18:16.979Z,8.27
2023-05-17T21:20:43.504Z,9.23
2023-05-17T21:23:10.289Z,9.15
2023-05-17T21:25:37.654Z,11.40
2023-05-17T21:28:05.691Z,8.35
2023-05-17T21:30:32.224Z,9.43
2023-05-17T21:32:59.311Z,12.25
2023-05-17T21:35:25.883Z,7.32
2023-05-17T21:37:52.499Z,11.02
2023-05-17T21:40:19.195Z,11.88
2023-05-17T21:42:46.118Z,7.68
2023-05-17T21:45:14.548Z,7.97
2023-05-17T21:47:41.221Z,8.60
2023-05-17T21:50:07.953Z,11.45
2023-05-17T21:52:34.639Z,7.85
2023-05-17T21:55:01.183Z,10.85
2023-05-17T21:57:27.725Z,10.43
2023-05-17T21:59:54.144Z,11.48
2023-05-17T22:02:20.865Z,13.48
2023-05-17T22:04:47.367Z,8.85
2023-05-17T22:07:13.995Z,9.20
2023-05-17T22:09:40.444Z,14.98
2023-05-17T22:12:09.192Z,12.13
2023-05-17T22:14:36.375Z,10.00
2023-05-17T22:17:08.984Z,12.32
2023-05-17T22:19:40.420Z,11.10
2023-05-17T22:22:08.077Z,12.82
2023-05-17T22:24:34.890Z,10.93
2023-05-17T22:27:02.235Z,12.00
2023-05-17T22:29:29.230Z,12.77
2023-05-17T22:31:55.769Z,10.82
2023-05-17T22:34:22.300Z,13.07
2023-05-17T22:36:49.006Z,19.40
2023-05-17T22:39:15.414Z,17.20
2023-05-17T22:41:41.983Z,12.85
2023-05-17T22:44:08.442Z,10.50
2023-05-17T22:46:35.059Z,10.73
2023-05-17T22:49:01.643Z,12.85
2023-05-17T22:51:29.915Z,12.73
2023-05-17T22:53:56.772Z,17.77
2023-05-17T22:56:23.289Z,12.13
2023-05-17T22:58:49.982Z,9.95
2023-05-17T23:01:16.496Z,10.95
2023-05-17T23:03:43.040Z,11.43
2023-05-17T23:06:09.595Z,12.50
2023-05-17T23:08:36.430Z,9.90
2023-05-17T23:11:05.256Z,15.10
2023-05-17T23:13:31.691Z,13.10
2023-05-17T23:15:58.173Z,8.15
2023-05-17T23:18:27.284Z,7.63
2023-05-17T23:20:53.872Z,14.60
2023-05-17T23:23:22.892Z,10.32
2023-05-17T23:25:50.835Z,11.30
2023-05-17T23:28:18.774Z,7.95
2023-05-17T23:30:48.480Z,11.43
2023-05-17T23:33:15.428Z,8.45
2023-05-17T23:35:41.879Z,14.57
2023-05-17T23:38:08.364Z,7.45
2023-05-17T23:40:34.833Z,11.98
2023-05-17T23:43:01.281Z,9.95
2023-05-17T23:45:28.064Z,10.38
2023-05-17T23:47:54.670Z,9.77
2023-05-17T23:50:21.223Z,10.35
2023-05-17T23:52:47.888Z,7.72
2023-05-17T23:55:14.431Z,10.20
2023-05-17T23:57:42.262Z,12.07
